Air Quality Table

TIMESTAMP NO2 SO2 O3 PM10 PM2.5 TEMP HUM WS WD NO
2022-07-03 15:00 0.35 µg/m3 0.81 µg/m3 96.8 µg/m3 N/A N/A 30.04 °C 61.16 % 7.87 m/s 249.6 Deg 0.13 µg/m3
2022-07-03 14:00 0.43 µg/m3 0.6 µg/m3 100.9 µg/m3 N/A N/A 28.86 °C 75.3 % 8.64 m/s 37.82 Deg 0.15 µg/m3
2022-07-03 13:00 1.29 µg/m3 0.85 µg/m3 114.67 µg/m3 N/A N/A 28.64 °C 74.59 % 9.21 m/s 81.38 Deg 0.21 µg/m3
2022-07-03 12:00 1.69 µg/m3 1.49 µg/m3 117.57 µg/m3 N/A N/A 28.99 °C 66.35 % 9.25 m/s 184.72 Deg 0.23 µg/m3
2022-07-03 11:00 1.99 µg/m3 2.19 µg/m3 117.37 µg/m3 N/A N/A 29.26 °C 60.95 % 8.29 m/s 220.86 Deg 0.23 µg/m3
2022-07-03 10:00 2.93 µg/m3 1.19 µg/m3 103.98 µg/m3 N/A N/A 29.18 °C 61.01 % 6.83 m/s 218.5 Deg 0.42 µg/m3
2022-07-03 09:00 4.7 µg/m3 0.55 µg/m3 87.36 µg/m3 N/A N/A 28.68 °C 67.67 % 5.71 m/s 293.47 Deg 0.86 µg/m3
2022-07-03 08:00 5.71 µg/m3 0.14 µg/m3 75.2 µg/m3 N/A N/A 27.8 °C 77.26 % 4.13 m/s 263.38 Deg 1.03 µg/m3
2022-07-03 07:00 3.27 µg/m3 0.11 µg/m3 73.08 µg/m3 N/A N/A 26.39 °C 85.79 % 3.14 m/s 99.46 Deg 0.41 µg/m3
2022-07-03 06:00 3.86 µg/m3 0.12 µg/m3 71.48 µg/m3 N/A N/A 24.81 °C 99.37 % 3.56 m/s 17.83 Deg 0.21 µg/m3
2022-07-03 05:00 3.9 µg/m3 0.11 µg/m3 73.42 µg/m3 N/A N/A 25.29 °C 99.04 % 3.46 m/s 3.51 Deg 0.09 µg/m3
2022-07-03 04:00 0.76 µg/m3 0.16 µg/m3 72.28 µg/m3 N/A N/A 25.16 °C 98.53 % 2.65 m/s 6.44 Deg 0.08 µg/m3
2022-07-03 03:00 2.24 µg/m3 0.11 µg/m3 80.56 µg/m3 N/A N/A 25.85 °C 87.47 % 2.09 m/s 187.75 Deg 0.08 µg/m3
2022-07-03 02:00 2.21 µg/m3 0.19 µg/m3 86.02 µg/m3 N/A N/A 26.42 °C 77.95 % 1.27 m/s 55.65 Deg 0.1 µg/m3
2022-07-03 01:00 1.42 µg/m3 0.1 µg/m3 80.96 µg/m3 N/A N/A 25.86 °C 83.59 % 1.17 m/s 140.7 Deg 0.06 µg/m3
2022-07-03 00:00 1.23 µg/m3 0.18 µg/m3 75.08 µg/m3 N/A N/A 24.99 °C 97 % 1.36 m/s 176.98 Deg 0.05 µg/m3
2022-07-02 23:00 -0.14 µg/m3 0.16 µg/m3 86.18 µg/m3 N/A N/A 25.07 °C 97.99 % 0.57 m/s 238.32 Deg 0.06 µg/m3
2022-07-02 22:00 -0.33 µg/m3 0.16 µg/m3 87.08 µg/m3 N/A N/A 25.17 °C 97.8 % 2.73 m/s 301.65 Deg 0.06 µg/m3
2022-07-02 21:00 -0.34 µg/m3 0.16 µg/m3 92.31 µg/m3 N/A N/A 25.17 °C 97.4 % 3.58 m/s 267.84 Deg 0.06 µg/m3
2022-07-02 20:00 -0.11 µg/m3 0.13 µg/m3 96.89 µg/m3 N/A N/A 25.32 °C 96.6 % 4.39 m/s 288.48 Deg 0.06 µg/m3
2022-07-02 19:00 -0.25 µg/m3 0.15 µg/m3 95.77 µg/m3 N/A N/A 25.66 °C 94.73 % 6.66 m/s 268.09 Deg 0.07 µg/m3
2022-07-02 18:00 -0.34 µg/m3 0.15 µg/m3 101 µg/m3 N/A N/A 25.88 °C 94.23 % 6.25 m/s 260.03 Deg 0.08 µg/m3
2022-07-02 17:00 1.12 µg/m3 0.16 µg/m3 95.17 µg/m3 N/A N/A 26.72 °C 88.11 % 5.87 m/s 205.07 Deg 0.19 µg/m3

It is to be noted that the data is provisional and subject to quality assurance procedures. For validated data kindly refer your request to contact.air@era.org.mt